sensor_id;sensor_type;location;lat;lon;timestamp;P1;durP1;ratioP1;P2;durP2;ratioP2
44766;SDS011;30487;48.716;9.272;2023-08-31T00:01:40;2.42;;;1.30;;
44766;SDS011;30487;48.716;9.272;2023-08-31T00:04:05;4.93;;;1.48;;
44766;SDS011;30487;48.716;9.272;2023-08-31T00:06:39;6.13;;;1.60;;
44766;SDS011;30487;48.716;9.272;2023-08-31T00:09:05;5.43;;;1.50;;
44766;SDS011;30487;48.716;9.272;2023-08-31T00:11:34;4.45;;;1.80;;
44766;SDS011;30487;48.716;9.272;2023-08-31T00:14:00;2.65;;;1.50;;
44766;SDS011;30487;48.716;9.272;2023-08-31T00:16:26;2.17;;;1.35;;
44766;SDS011;30487;48.716;9.272;2023-08-31T00:18:51;2.58;;;1.60;;
44766;SDS011;30487;48.716;9.272;2023-08-31T00:21:18;4.38;;;1.60;;
44766;SDS011;30487;48.716;9.272;2023-08-31T00:23:43;2.92;;;1.50;;
44766;SDS011;30487;48.716;9.272;2023-08-31T00:26:09;2.28;;;1.40;;
44766;SDS011;30487;48.716;9.272;2023-08-31T00:28:35;2.78;;;1.60;;
44766;SDS011;30487;48.716;9.272;2023-08-31T00:31:01;4.57;;;1.50;;
44766;SDS011;30487;48.716;9.272;2023-08-31T00:33:28;4.88;;;1.58;;
44766;SDS011;30487;48.716;9.272;2023-08-31T00:35:54;2.83;;;1.42;;
44766;SDS011;30487;48.716;9.272;2023-08-31T00:38:21;5.80;;;1.70;;
44766;SDS011;30487;48.716;9.272;2023-08-31T00:40:46;4.35;;;1.75;;
44766;SDS011;30487;48.716;9.272;2023-08-31T00:43:15;4.22;;;1.55;;
44766;SDS011;30487;48.716;9.272;2023-08-31T00:45:41;5.72;;;1.60;;
44766;SDS011;30487;48.716;9.272;2023-08-31T00:48:08;4.10;;;1.70;;
44766;SDS011;30487;48.716;9.272;2023-08-31T00:50:33;4.78;;;1.65;;
44766;SDS011;30487;48.716;9.272;2023-08-31T00:52:59;2.67;;;1.45;;
44766;SDS011;30487;48.716;9.272;2023-08-31T00:55:25;3.25;;;1.60;;
44766;SDS011;30487;48.716;9.272;2023-08-31T00:57:51;4.43;;;1.67;;
44766;SDS011;30487;48.716;9.272;2023-08-31T01:00:17;5.47;;;1.67;;
44766;SDS011;30487;48.716;9.272;2023-08-31T01:05:25;3.65;;;1.70;;
44766;SDS011;30487;48.716;9.272;2023-08-31T01:13:09;3.83;;;1.50;;
44766;SDS011;30487;48.716;9.272;2023-08-31T01:18:06;3.67;;;1.60;;
44766;SDS011;30487;48.716;9.272;2023-08-31T01:20:38;2.83;;;1.35;;
44766;SDS011;30487;48.716;9.272;2023-08-31T01:23:16;3.85;;;1.60;;
44766;SDS011;30487;48.716;9.272;2023-08-31T01:25:44;5.03;;;1.58;;
44766;SDS011;30487;48.716;9.272;2023-08-31T01:28:13;5.15;;;1.40;;
44766;SDS011;30487;48.716;9.272;2023-08-31T01:30:38;6.30;;;1.50;;
44766;SDS011;30487;48.716;9.272;2023-08-31T01:33:04;5.10;;;1.50;;
44766;SDS011;30487;48.716;9.272;2023-08-31T01:35:34;2.95;;;1.50;;
44766;SDS011;30487;48.716;9.272;2023-08-31T01:38:06;3.00;;;1.70;;
44766;SDS011;30487;48.716;9.272;2023-08-31T01:40:35;4.72;;;1.73;;
44766;SDS011;30487;48.716;9.272;2023-08-31T01:43:05;4.28;;;1.48;;
44766;SDS011;30487;48.716;9.272;2023-08-31T01:45:32;3.80;;;1.80;;
44766;SDS011;30487;48.716;9.272;2023-08-31T01:47:59;4.68;;;2.08;;
44766;SDS011;30487;48.716;9.272;2023-08-31T01:50:25;2.65;;;1.65;;
44766;SDS011;30487;48.716;9.272;2023-08-31T01:52:51;4.68;;;1.80;;
44766;SDS011;30487;48.716;9.272;2023-08-31T01:55:18;5.72;;;1.90;;
44766;SDS011;30487;48.716;9.272;2023-08-31T01:57:43;3.03;;;1.48;;
44766;SDS011;30487;48.716;9.272;2023-08-31T02:00:09;4.93;;;1.63;;
44766;SDS011;30487;48.716;9.272;2023-08-31T02:02:36;3.20;;;1.77;;
44766;SDS011;30487;48.716;9.272;2023-08-31T02:05:02;3.53;;;1.63;;
44766;SDS011;30487;48.716;9.272;2023-08-31T02:07:29;5.53;;;2.20;;
44766;SDS011;30487;48.716;9.272;2023-08-31T02:09:55;3.40;;;1.70;;
44766;SDS011;30487;48.716;9.272;2023-08-31T02:12:20;3.45;;;1.73;;
44766;SDS011;30487;48.716;9.272;2023-08-31T02:14:46;4.95;;;1.88;;
44766;SDS011;30487;48.716;9.272;2023-08-31T02:17:12;4.75;;;1.80;;
44766;SDS011;30487;48.716;9.272;2023-08-31T02:19:37;3.17;;;1.85;;
44766;SDS011;30487;48.716;9.272;2023-08-31T02:22:03;4.63;;;1.45;;
44766;SDS011;30487;48.716;9.272;2023-08-31T02:24:29;2.90;;;1.80;;
44766;SDS011;30487;48.716;9.272;2023-08-31T02:26:55;4.82;;;2.20;;
44766;SDS011;30487;48.716;9.272;2023-08-31T02:29:21;4.00;;;1.70;;
44766;SDS011;30487;48.716;9.272;2023-08-31T02:31:46;4.40;;;1.90;;
44766;SDS011;30487;48.716;9.272;2023-08-31T02:34:12;5.70;;;1.90;;
44766;SDS011;30487;48.716;9.272;2023-08-31T02:36:38;4.40;;;1.92;;
44766;SDS011;30487;48.716;9.272;2023-08-31T02:39:03;5.78;;;1.92;;
44766;SDS011;30487;48.716;9.272;2023-08-31T02:41:29;4.20;;;1.75;;
44766;SDS011;30487;48.716;9.272;2023-08-31T02:43:54;6.70;;;2.22;;
44766;SDS011;30487;48.716;9.272;2023-08-31T02:46:20;6.45;;;1.80;;
44766;SDS011;30487;48.716;9.272;2023-08-31T02:48:46;4.72;;;1.90;;
44766;SDS011;30487;48.716;9.272;2023-08-31T02:51:12;5.15;;;1.92;;
44766;SDS011;30487;48.716;9.272;2023-08-31T02:53:38;3.35;;;1.85;;
44766;SDS011;30487;48.716;9.272;2023-08-31T02:56:03;6.25;;;2.20;;
44766;SDS011;30487;48.716;9.272;2023-08-31T02:58:29;3.50;;;1.85;;
44766;SDS011;30487;48.716;9.272;2023-08-31T03:00:55;5.13;;;1.83;;
44766;SDS011;30487;48.716;9.272;2023-08-31T03:03:21;3.97;;;1.77;;
44766;SDS011;30487;48.716;9.272;2023-08-31T03:05:46;4.05;;;1.73;;
44766;SDS011;30487;48.716;9.272;2023-08-31T03:08:12;4.82;;;1.77;;
44766;SDS011;30487;48.716;9.272;2023-08-31T03:10:38;3.30;;;1.95;;
44766;SDS011;30487;48.716;9.272;2023-08-31T03:13:05;4.82;;;1.95;;
44766;SDS011;30487;48.716;9.272;2023-08-31T03:15:34;3.00;;;2.03;;
44766;SDS011;30487;48.716;9.272;2023-08-31T03:17:59;4.80;;;2.00;;
44766;SDS011;30487;48.716;9.272;2023-08-31T03:20:25;3.63;;;1.88;;
44766;SDS011;30487;48.716;9.272;2023-08-31T03:22:51;4.82;;;2.13;;
44766;SDS011;30487;48.716;9.272;2023-08-31T03:25:16;7.63;;;2.00;;
44766;SDS011;30487;48.716;9.272;2023-08-31T03:27:42;3.70;;;1.60;;
44766;SDS011;30487;48.716;9.272;2023-08-31T03:30:08;7.88;;;2.50;;
44766;SDS011;30487;48.716;9.272;2023-08-31T03:32:34;4.15;;;1.90;;
44766;SDS011;30487;48.716;9.272;2023-08-31T03:35:01;6.97;;;1.90;;
44766;SDS011;30487;48.716;9.272;2023-08-31T03:37:28;6.57;;;2.10;;
44766;SDS011;30487;48.716;9.272;2023-08-31T03:39:54;5.43;;;1.95;;
44766;SDS011;30487;48.716;9.272;2023-08-31T03:42:19;5.05;;;2.20;;
44766;SDS011;30487;48.716;9.272;2023-08-31T03:44:45;3.53;;;2.10;;
44766;SDS011;30487;48.716;9.272;2023-08-31T03:47:11;3.00;;;2.10;;
44766;SDS011;30487;48.716;9.272;2023-08-31T03:49:36;3.97;;;1.77;;
44766;SDS011;30487;48.716;9.272;2023-08-31T03:52:02;3.08;;;1.95;;
44766;SDS011;30487;48.716;9.272;2023-08-31T03:54:27;4.50;;;1.90;;
44766;SDS011;30487;48.716;9.272;2023-08-31T03:56:53;4.07;;;1.90;;
44766;SDS011;30487;48.716;9.272;2023-08-31T03:59:18;7.22;;;1.98;;
44766;SDS011;30487;48.716;9.272;2023-08-31T04:01:44;4.65;;;2.20;;
44766;SDS011;30487;48.716;9.272;2023-08-31T04:04:10;3.60;;;2.17;;
44766;SDS011;30487;48.716;9.272;2023-08-31T04:06:35;3.03;;;1.73;;
44766;SDS011;30487;48.716;9.272;2023-08-31T04:09:01;3.65;;;2.20;;
44766;SDS011;30487;48.716;9.272;2023-08-31T04:11:26;6.65;;;2.13;;
44766;SDS011;30487;48.716;9.272;2023-08-31T04:13:52;5.22;;;2.00;;
44766;SDS011;30487;48.716;9.272;2023-08-31T04:16:18;3.10;;;2.00;;
44766;SDS011;30487;48.716;9.272;2023-08-31T04:18:43;5.63;;;2.17;;
44766;SDS011;30487;48.716;9.272;2023-08-31T04:21:12;3.95;;;2.10;;
44766;SDS011;30487;48.716;9.272;2023-08-31T04:23:38;2.78;;;1.83;;
44766;SDS011;30487;48.716;9.272;2023-08-31T04:26:10;9.27;;;2.35;;
44766;SDS011;30487;48.716;9.272;2023-08-31T04:28:37;4.50;;;1.90;;
44766;SDS011;30487;48.716;9.272;2023-08-31T04:31:07;4.15;;;1.88;;
44766;SDS011;30487;48.716;9.272;2023-08-31T04:33:36;5.57;;;1.98;;
44766;SDS011;30487;48.716;9.272;2023-08-31T04:36:06;3.38;;;2.22;;
44766;SDS011;30487;48.716;9.272;2023-08-31T04:38:32;5.57;;;1.90;;
44766;SDS011;30487;48.716;9.272;2023-08-31T04:40:59;5.05;;;1.77;;
44766;SDS011;30487;48.716;9.272;2023-08-31T04:43:25;4.47;;;2.03;;
44766;SDS011;30487;48.716;9.272;2023-08-31T04:45:51;7.13;;;2.00;;
44766;SDS011;30487;48.716;9.272;2023-08-31T04:48:18;5.50;;;2.10;;
44766;SDS011;30487;48.716;9.272;2023-08-31T04:50:43;5.15;;;2.20;;
44766;SDS011;30487;48.716;9.272;2023-08-31T04:53:09;7.28;;;2.40;;
44766;SDS011;30487;48.716;9.272;2023-08-31T04:55:34;5.70;;;2.33;;
44766;SDS011;30487;48.716;9.272;2023-08-31T04:58:00;5.57;;;2.30;;
44766;SDS011;30487;48.716;9.272;2023-08-31T05:00:25;6.00;;;2.22;;
44766;SDS011;30487;48.716;9.272;2023-08-31T05:02:51;6.00;;;2.30;;
44766;SDS011;30487;48.716;9.272;2023-08-31T05:05:16;6.32;;;2.70;;
44766;SDS011;30487;48.716;9.272;2023-08-31T05:07:43;6.15;;;2.35;;
44766;SDS011;30487;48.716;9.272;2023-08-31T05:10:09;5.28;;;2.08;;
44766;SDS011;30487;48.716;9.272;2023-08-31T05:12:35;4.03;;;2.00;;
44766;SDS011;30487;48.716;9.272;2023-08-31T05:15:00;6.75;;;2.33;;
44766;SDS011;30487;48.716;9.272;2023-08-31T05:17:26;5.03;;;2.38;;
44766;SDS011;30487;48.716;9.272;2023-08-31T05:19:51;5.32;;;2.17;;
44766;SDS011;30487;48.716;9.272;2023-08-31T05:22:17;4.40;;;2.10;;
44766;SDS011;30487;48.716;9.272;2023-08-31T05:24:42;5.45;;;2.25;;
44766;SDS011;30487;48.716;9.272;2023-08-31T05:27:08;6.05;;;2.25;;
44766;SDS011;30487;48.716;9.272;2023-08-31T05:29:33;6.50;;;2.42;;
44766;SDS011;30487;48.716;9.272;2023-08-31T05:31:59;5.95;;;2.22;;
44766;SDS011;30487;48.716;9.272;2023-08-31T05:34:25;6.65;;;2.13;;
44766;SDS011;30487;48.716;9.272;2023-08-31T05:36:51;5.05;;;2.30;;
44766;SDS011;30487;48.716;9.272;2023-08-31T05:39:16;4.18;;;2.13;;
44766;SDS011;30487;48.716;9.272;2023-08-31T05:41:42;6.88;;;2.40;;
44766;SDS011;30487;48.716;9.272;2023-08-31T05:44:09;4.00;;;2.05;;
44766;SDS011;30487;48.716;9.272;2023-08-31T05:46:35;4.75;;;2.20;;
44766;SDS011;30487;48.716;9.272;2023-08-31T05:49:01;5.25;;;2.10;;
44766;SDS011;30487;48.716;9.272;2023-08-31T05:51:27;6.00;;;2.10;;
44766;SDS011;30487;48.716;9.272;2023-08-31T05:53:52;6.72;;;2.13;;
44766;SDS011;30487;48.716;9.272;2023-08-31T05:56:21;5.43;;;2.00;;
44766;SDS011;30487;48.716;9.272;2023-08-31T05:58:46;4.15;;;2.08;;
44766;SDS011;30487;48.716;9.272;2023-08-31T06:01:12;3.38;;;1.92;;
44766;SDS011;30487;48.716;9.272;2023-08-31T06:03:38;4.68;;;2.00;;
44766;SDS011;30487;48.716;9.272;2023-08-31T06:06:03;6.78;;;2.30;;
44766;SDS011;30487;48.716;9.272;2023-08-31T06:08:29;4.93;;;2.03;;
44766;SDS011;30487;48.716;9.272;2023-08-31T06:10:58;4.85;;;1.90;;
44766;SDS011;30487;48.716;9.272;2023-08-31T06:13:24;3.85;;;2.15;;
44766;SDS011;30487;48.716;9.272;2023-08-31T06:15:49;4.32;;;2.00;;
44766;SDS011;30487;48.716;9.272;2023-08-31T06:18:15;5.82;;;2.67;;
44766;SDS011;30487;48.716;9.272;2023-08-31T06:20:40;4.63;;;2.10;;
44766;SDS011;30487;48.716;9.272;2023-08-31T06:23:06;5.45;;;1.88;;
44766;SDS011;30487;48.716;9.272;2023-08-31T06:25:31;5.38;;;2.10;;
44766;SDS011;30487;48.716;9.272;2023-08-31T06:27:57;4.45;;;2.05;;
44766;SDS011;30487;48.716;9.272;2023-08-31T06:30:23;4.72;;;1.90;;
44766;SDS011;30487;48.716;9.272;2023-08-31T06:32:49;4.43;;;1.98;;
44766;SDS011;30487;48.716;9.272;2023-08-31T06:35:15;9.43;;;2.13;;
44766;SDS011;30487;48.716;9.272;2023-08-31T06:37:41;4.97;;;2.47;;
44766;SDS011;30487;48.716;9.272;2023-08-31T06:40:07;4.72;;;2.17;;
44766;SDS011;30487;48.716;9.272;2023-08-31T06:42:34;5.40;;;2.05;;
44766;SDS011;30487;48.716;9.272;2023-08-31T06:45:03;4.78;;;2.13;;
44766;SDS011;30487;48.716;9.272;2023-08-31T06:47:30;4.85;;;2.20;;
44766;SDS011;30487;48.716;9.272;2023-08-31T06:49:56;6.85;;;2.50;;
44766;SDS011;30487;48.716;9.272;2023-08-31T06:52:22;4.57;;;2.60;;
44766;SDS011;30487;48.716;9.272;2023-08-31T06:54:49;6.93;;;2.55;;
44766;SDS011;30487;48.716;9.272;2023-08-31T06:57:14;4.32;;;2.60;;
44766;SDS011;30487;48.716;9.272;2023-08-31T06:59:40;4.68;;;2.20;;
44766;SDS011;30487;48.716;9.272;2023-08-31T07:02:06;6.43;;;2.17;;
44766;SDS011;30487;48.716;9.272;2023-08-31T07:04:31;4.80;;;2.35;;
44766;SDS011;30487;48.716;9.272;2023-08-31T07:06:57;7.15;;;2.42;;
44766;SDS011;30487;48.716;9.272;2023-08-31T07:09:22;7.28;;;2.15;;
44766;SDS011;30487;48.716;9.272;2023-08-31T07:11:48;5.18;;;2.10;;
44766;SDS011;30487;48.716;9.272;2023-08-31T07:14:13;5.22;;;2.60;;
44766;SDS011;30487;48.716;9.272;2023-08-31T07:16:39;7.05;;;2.28;;
44766;SDS011;30487;48.716;9.272;2023-08-31T07:19:05;4.35;;;2.10;;
44766;SDS011;30487;48.716;9.272;2023-08-31T07:21:31;2.72;;;1.70;;
44766;SDS011;30487;48.716;9.272;2023-08-31T07:23:56;4.78;;;1.90;;
44766;SDS011;30487;48.716;9.272;2023-08-31T07:26:22;5.78;;;1.80;;
44766;SDS011;30487;48.716;9.272;2023-08-31T07:28:48;5.22;;;1.85;;
44766;SDS011;30487;48.716;9.272;2023-08-31T07:31:13;3.60;;;1.50;;
44766;SDS011;30487;48.716;9.272;2023-08-31T07:33:40;4.10;;;1.60;;
44766;SDS011;30487;48.716;9.272;2023-08-31T07:36:06;4.90;;;1.52;;
44766;SDS011;30487;48.716;9.272;2023-08-31T07:38:31;4.28;;;1.73;;
44766;SDS011;30487;48.716;9.272;2023-08-31T07:40:58;3.78;;;1.67;;
44766;SDS011;30487;48.716;9.272;2023-08-31T07:43:25;4.85;;;1.48;;
44766;SDS011;30487;48.716;9.272;2023-08-31T07:45:51;3.47;;;1.60;;
44766;SDS011;30487;48.716;9.272;2023-08-31T07:48:17;6.45;;;1.70;;
44766;SDS011;30487;48.716;9.272;2023-08-31T07:50:43;3.08;;;1.40;;
44766;SDS011;30487;48.716;9.272;2023-08-31T07:53:08;4.93;;;1.55;;
44766;SDS011;30487;48.716;9.272;2023-08-31T07:55:34;4.85;;;1.67;;
44766;SDS011;30487;48.716;9.272;2023-08-31T07:58:00;6.63;;;1.70;;
44766;SDS011;30487;48.716;9.272;2023-08-31T08:00:26;5.00;;;1.67;;
44766;SDS011;30487;48.716;9.272;2023-08-31T08:02:52;2.85;;;1.35;;
44766;SDS011;30487;48.716;9.272;2023-08-31T08:05:17;4.28;;;1.42;;
44766;SDS011;30487;48.716;9.272;2023-08-31T08:07:43;2.45;;;1.27;;
44766;SDS011;30487;48.716;9.272;2023-08-31T08:10:09;4.07;;;1.33;;
44766;SDS011;30487;48.716;9.272;2023-08-31T08:12:36;4.50;;;1.30;;
44766;SDS011;30487;48.716;9.272;2023-08-31T08:15:08;4.75;;;1.27;;
44766;SDS011;30487;48.716;9.272;2023-08-31T08:17:34;2.65;;;1.23;;
44766;SDS011;30487;48.716;9.272;2023-08-31T08:20:00;2.47;;;1.20;;
44766;SDS011;30487;48.716;9.272;2023-08-31T08:22:25;6.60;;;1.70;;
44766;SDS011;30487;48.716;9.272;2023-08-31T08:24:51;4.25;;;1.50;;
44766;SDS011;30487;48.716;9.272;2023-08-31T08:27:17;6.78;;;1.60;;
44766;SDS011;30487;48.716;9.272;2023-08-31T08:29:44;5.80;;;1.50;;
44766;SDS011;30487;48.716;9.272;2023-08-31T08:32:10;6.30;;;1.52;;
44766;SDS011;30487;48.716;9.272;2023-08-31T08:34:36;4.90;;;1.52;;
44766;SDS011;30487;48.716;9.272;2023-08-31T08:37:01;4.80;;;1.60;;
44766;SDS011;30487;48.716;9.272;2023-08-31T08:39:28;5.78;;;1.73;;
44766;SDS011;30487;48.716;9.272;2023-08-31T08:41:54;6.20;;;1.52;;
44766;SDS011;30487;48.716;9.272;2023-08-31T08:44:26;2.92;;;1.20;;
44766;SDS011;30487;48.716;9.272;2023-08-31T08:46:57;5.63;;;1.50;;
44766;SDS011;30487;48.716;9.272;2023-08-31T08:49:25;3.90;;;1.30;;
44766;SDS011;30487;48.716;9.272;2023-08-31T08:51:52;2.83;;;1.45;;
44766;SDS011;30487;48.716;9.272;2023-08-31T08:54:18;3.42;;;1.50;;
44766;SDS011;30487;48.716;9.272;2023-08-31T08:56:45;3.50;;;1.30;;
44766;SDS011;30487;48.716;9.272;2023-08-31T08:59:10;4.57;;;1.38;;
44766;SDS011;30487;48.716;9.272;2023-08-31T09:01:38;4.70;;;1.50;;
44766;SDS011;30487;48.716;9.272;2023-08-31T09:04:04;6.10;;;1.40;;
44766;SDS011;30487;48.716;9.272;2023-08-31T09:06:30;2.25;;;1.38;;
44766;SDS011;30487;48.716;9.272;2023-08-31T09:08:55;2.88;;;1.30;;
44766;SDS011;30487;48.716;9.272;2023-08-31T09:11:22;5.13;;;1.50;;
44766;SDS011;30487;48.716;9.272;2023-08-31T09:13:48;5.97;;;1.70;;
44766;SDS011;30487;48.716;9.272;2023-08-31T09:16:28;5.68;;;1.50;;
44766;SDS011;30487;48.716;9.272;2023-08-31T09:18:55;4.13;;;1.60;;
44766;SDS011;30487;48.716;9.272;2023-08-31T09:21:21;5.22;;;1.52;;
44766;SDS011;30487;48.716;9.272;2023-08-31T09:23:55;5.45;;;1.40;;
44766;SDS011;30487;48.716;9.272;2023-08-31T09:28:48;4.82;;;1.60;;
44766;SDS011;30487;48.716;9.272;2023-08-31T09:31:14;4.82;;;1.60;;
44766;SDS011;30487;48.716;9.272;2023-08-31T09:33:42;6.35;;;1.35;;
44766;SDS011;30487;48.716;9.272;2023-08-31T09:36:15;5.05;;;1.45;;
44766;SDS011;30487;48.716;9.272;2023-08-31T09:38:41;3.85;;;1.50;;
44766;SDS011;30487;48.716;9.272;2023-08-31T09:41:11;5.65;;;1.42;;
44766;SDS011;30487;48.716;9.272;2023-08-31T09:43:37;5.35;;;1.67;;
44766;SDS011;30487;48.716;9.272;2023-08-31T09:46:03;9.00;;;1.45;;
44766;SDS011;30487;48.716;9.272;2023-08-31T09:48:30;4.22;;;1.40;;
44766;SDS011;30487;48.716;9.272;2023-08-31T09:50:56;4.35;;;1.20;;
44766;SDS011;30487;48.716;9.272;2023-08-31T09:53:25;5.20;;;1.42;;
44766;SDS011;30487;48.716;9.272;2023-08-31T09:55:56;4.05;;;1.58;;
44766;SDS011;30487;48.716;9.272;2023-08-31T09:58:21;5.45;;;1.50;;
44766;SDS011;30487;48.716;9.272;2023-08-31T10:00:48;4.00;;;1.65;;
44766;SDS011;30487;48.716;9.272;2023-08-31T10:03:15;4.18;;;1.52;;
44766;SDS011;30487;48.716;9.272;2023-08-31T10:05:42;6.25;;;1.50;;
44766;SDS011;30487;48.716;9.272;2023-08-31T10:08:09;3.33;;;1.35;;
44766;SDS011;30487;48.716;9.272;2023-08-31T10:10:35;3.40;;;1.58;;
44766;SDS011;30487;48.716;9.272;2023-08-31T10:13:04;5.65;;;1.58;;
44766;SDS011;30487;48.716;9.272;2023-08-31T10:15:31;6.47;;;1.75;;
44766;SDS011;30487;48.716;9.272;2023-08-31T10:18:01;4.50;;;1.60;;
44766;SDS011;30487;48.716;9.272;2023-08-31T10:20:30;6.53;;;1.38;;
44766;SDS011;30487;48.716;9.272;2023-08-31T10:23:06;4.75;;;1.40;;
44766;SDS011;30487;48.716;9.272;2023-08-31T10:26:19;5.30;;;1.42;;
44766;SDS011;30487;48.716;9.272;2023-08-31T10:28:22;4.22;;;1.40;;
44766;SDS011;30487;48.716;9.272;2023-08-31T10:31:02;5.53;;;1.17;;
44766;SDS011;30487;48.716;9.272;2023-08-31T10:33:33;4.82;;;1.50;;
44766;SDS011;30487;48.716;9.272;2023-08-31T10:36:09;4.40;;;1.30;;
44766;SDS011;30487;48.716;9.272;2023-08-31T10:38:39;4.43;;;1.50;;
44766;SDS011;30487;48.716;9.272;2023-08-31T10:43:47;7.60;;;1.50;;
44766;SDS011;30487;48.716;9.272;2023-08-31T10:48:54;4.97;;;1.55;;
44766;SDS011;30487;48.716;9.272;2023-08-31T10:51:21;3.50;;;1.50;;
44766;SDS011;30487;48.716;9.272;2023-08-31T10:53:51;5.80;;;1.38;;
44766;SDS011;30487;48.716;9.272;2023-08-31T10:56:18;7.65;;;1.60;;
44766;SDS011;30487;48.716;9.272;2023-08-31T10:58:57;6.25;;;1.75;;
44766;SDS011;30487;48.716;9.272;2023-08-31T11:04:25;4.10;;;1.45;;
44766;SDS011;30487;48.716;9.272;2023-08-31T11:09:44;5.75;;;1.60;;
44766;SDS011;30487;48.716;9.272;2023-08-31T11:12:11;6.65;;;1.67;;
44766;SDS011;30487;48.716;9.272;2023-08-31T11:14:37;5.82;;;1.80;;
44766;SDS011;30487;48.716;9.272;2023-08-31T11:17:03;3.40;;;1.25;;
44766;SDS011;30487;48.716;9.272;2023-08-31T11:19:30;5.65;;;1.70;;
44766;SDS011;30487;48.716;9.272;2023-08-31T11:21:56;6.25;;;1.40;;
44766;SDS011;30487;48.716;9.272;2023-08-31T11:24:22;5.85;;;1.55;;
44766;SDS011;30487;48.716;9.272;2023-08-31T11:26:51;5.05;;;1.60;;
44766;SDS011;30487;48.716;9.272;2023-08-31T11:29:18;4.03;;;1.70;;
44766;SDS011;30487;48.716;9.272;2023-08-31T11:31:43;4.75;;;1.65;;
44766;SDS011;30487;48.716;9.272;2023-08-31T11:34:12;7.05;;;1.88;;
44766;SDS011;30487;48.716;9.272;2023-08-31T11:36:39;6.97;;;1.50;;
44766;SDS011;30487;48.716;9.272;2023-08-31T11:39:10;5.65;;;1.70;;
44766;SDS011;30487;48.716;9.272;2023-08-31T11:41:39;4.05;;;1.40;;
44766;SDS011;30487;48.716;9.272;2023-08-31T11:44:07;4.97;;;1.75;;
44766;SDS011;30487;48.716;9.272;2023-08-31T11:46:36;6.70;;;2.17;;
44766;SDS011;30487;48.716;9.272;2023-08-31T11:49:03;3.28;;;1.38;;
44766;SDS011;30487;48.716;9.272;2023-08-31T11:51:32;6.72;;;1.60;;
44766;SDS011;30487;48.716;9.272;2023-08-31T11:54:00;6.05;;;1.60;;
44766;SDS011;30487;48.716;9.272;2023-08-31T11:56:27;5.38;;;1.95;;
44766;SDS011;30487;48.716;9.272;2023-08-31T11:59:06;2.92;;;1.48;;
44766;SDS011;30487;48.716;9.272;2023-08-31T12:01:33;5.95;;;1.80;;
44766;SDS011;30487;48.716;9.272;2023-08-31T12:04:09;4.15;;;1.50;;
44766;SDS011;30487;48.716;9.272;2023-08-31T12:09:01;4.72;;;1.80;;
44766;SDS011;30487;48.716;9.272;2023-08-31T12:11:29;7.10;;;1.77;;
44766;SDS011;30487;48.716;9.272;2023-08-31T12:13:55;4.78;;;1.77;;
44766;SDS011;30487;48.716;9.272;2023-08-31T12:16:31;5.20;;;1.85;;
44766;SDS011;30487;48.716;9.272;2023-08-31T12:19:01;4.45;;;1.70;;
44766;SDS011;30487;48.716;9.272;2023-08-31T12:21:29;3.67;;;1.58;;
44766;SDS011;30487;48.716;9.272;2023-08-31T12:23:56;5.53;;;1.70;;
44766;SDS011;30487;48.716;9.272;2023-08-31T12:26:23;3.10;;;1.38;;
44766;SDS011;30487;48.716;9.272;2023-08-31T12:28:49;7.30;;;1.50;;
44766;SDS011;30487;48.716;9.272;2023-08-31T12:31:14;3.85;;;1.30;;
44766;SDS011;30487;48.716;9.272;2023-08-31T12:33:40;5.15;;;1.40;;
44766;SDS011;30487;48.716;9.272;2023-08-31T12:36:05;4.78;;;1.38;;
44766;SDS011;30487;48.716;9.272;2023-08-31T12:38:31;3.75;;;1.60;;
44766;SDS011;30487;48.716;9.272;2023-08-31T12:40:56;5.43;;;1.70;;
44766;SDS011;30487;48.716;9.272;2023-08-31T12:43:22;4.82;;;1.73;;
44766;SDS011;30487;48.716;9.272;2023-08-31T12:45:48;6.07;;;1.63;;
44766;SDS011;30487;48.716;9.272;2023-08-31T12:48:13;4.82;;;1.38;;
44766;SDS011;30487;48.716;9.272;2023-08-31T12:50:39;5.85;;;1.50;;
44766;SDS011;30487;48.716;9.272;2023-08-31T12:53:04;7.00;;;1.58;;
44766;SDS011;30487;48.716;9.272;2023-08-31T12:55:30;6.78;;;1.98;;
44766;SDS011;30487;48.716;9.272;2023-08-31T12:57:55;7.00;;;1.75;;
44766;SDS011;30487;48.716;9.272;2023-08-31T13:00:21;6.60;;;1.30;;
44766;SDS011;30487;48.716;9.272;2023-08-31T13:02:47;7.20;;;2.00;;
44766;SDS011;30487;48.716;9.272;2023-08-31T13:05:12;7.40;;;1.60;;
44766;SDS011;30487;48.716;9.272;2023-08-31T13:07:38;9.60;;;1.63;;
44766;SDS011;30487;48.716;9.272;2023-08-31T13:10:04;4.25;;;1.50;;
44766;SDS011;30487;48.716;9.272;2023-08-31T13:12:30;4.88;;;1.55;;
44766;SDS011;30487;48.716;9.272;2023-08-31T13:14:56;4.68;;;1.52;;
44766;SDS011;30487;48.716;9.272;2023-08-31T13:17:22;5.63;;;1.55;;
44766;SDS011;30487;48.716;9.272;2023-08-31T13:19:52;4.38;;;1.60;;
44766;SDS011;30487;48.716;9.272;2023-08-31T13:22:18;6.30;;;1.50;;
44766;SDS011;30487;48.716;9.272;2023-08-31T13:24:43;4.25;;;1.60;;
44766;SDS011;30487;48.716;9.272;2023-08-31T13:27:09;5.43;;;1.85;;
44766;SDS011;30487;48.716;9.272;2023-08-31T13:29:34;5.20;;;1.60;;
44766;SDS011;30487;48.716;9.272;2023-08-31T13:32:00;5.10;;;1.63;;
44766;SDS011;30487;48.716;9.272;2023-08-31T13:34:26;6.65;;;1.75;;
44766;SDS011;30487;48.716;9.272;2023-08-31T13:36:51;4.15;;;1.60;;
44766;SDS011;30487;48.716;9.272;2023-08-31T13:39:17;8.57;;;1.75;;
44766;SDS011;30487;48.716;9.272;2023-08-31T13:41:43;4.22;;;1.45;;
44766;SDS011;30487;48.716;9.272;2023-08-31T13:44:10;3.67;;;1.50;;
44766;SDS011;30487;48.716;9.272;2023-08-31T13:46:36;9.32;;;2.03;;
44766;SDS011;30487;48.716;9.272;2023-08-31T13:49:02;5.38;;;1.60;;
44766;SDS011;30487;48.716;9.272;2023-08-31T13:51:27;5.47;;;1.52;;
44766;SDS011;30487;48.716;9.272;2023-08-31T13:53:53;5.32;;;1.70;;
44766;SDS011;30487;48.716;9.272;2023-08-31T13:56:19;7.00;;;2.13;;
44766;SDS011;30487;48.716;9.272;2023-08-31T13:58:45;4.22;;;1.45;;
44766;SDS011;30487;48.716;9.272;2023-08-31T14:01:10;3.90;;;1.38;;
44766;SDS011;30487;48.716;9.272;2023-08-31T14:03:38;4.38;;;1.70;;
44766;SDS011;30487;48.716;9.272;2023-08-31T14:06:03;4.90;;;1.50;;
44766;SDS011;30487;48.716;9.272;2023-08-31T14:08:29;4.82;;;1.50;;
44766;SDS011;30487;48.716;9.272;2023-08-31T14:10:54;4.40;;;1.60;;
44766;SDS011;30487;48.716;9.272;2023-08-31T14:13:21;4.05;;;1.80;;
44766;SDS011;30487;48.716;9.272;2023-08-31T14:15:47;4.03;;;1.48;;
44766;SDS011;30487;48.716;9.272;2023-08-31T14:18:13;6.20;;;1.65;;
44766;SDS011;30487;48.716;9.272;2023-08-31T14:20:39;5.45;;;1.83;;
44766;SDS011;30487;48.716;9.272;2023-08-31T14:23:05;4.70;;;1.73;;
44766;SDS011;30487;48.716;9.272;2023-08-31T14:25:35;5.53;;;1.98;;
44766;SDS011;30487;48.716;9.272;2023-08-31T14:28:01;6.00;;;1.77;;
44766;SDS011;30487;48.716;9.272;2023-08-31T14:30:27;4.93;;;1.70;;
44766;SDS011;30487;48.716;9.272;2023-08-31T14:32:53;5.88;;;1.33;;
44766;SDS011;30487;48.716;9.272;2023-08-31T14:35:19;6.47;;;1.30;;
44766;SDS011;30487;48.716;9.272;2023-08-31T14:37:44;6.88;;;1.60;;
44766;SDS011;30487;48.716;9.272;2023-08-31T14:40:10;5.60;;;1.70;;
44766;SDS011;30487;48.716;9.272;2023-08-31T14:42:36;8.32;;;1.85;;
44766;SDS011;30487;48.716;9.272;2023-08-31T14:45:02;4.43;;;1.77;;
44766;SDS011;30487;48.716;9.272;2023-08-31T14:47:27;7.93;;;1.70;;
44766;SDS011;30487;48.716;9.272;2023-08-31T14:49:54;3.03;;;1.60;;
44766;SDS011;30487;48.716;9.272;2023-08-31T14:52:20;4.15;;;1.50;;
44766;SDS011;30487;48.716;9.272;2023-08-31T14:54:46;2.88;;;1.42;;
44766;SDS011;30487;48.716;9.272;2023-08-31T14:57:11;4.55;;;1.45;;
44766;SDS011;30487;48.716;9.272;2023-08-31T14:59:37;3.13;;;1.38;;
44766;SDS011;30487;48.716;9.272;2023-08-31T15:02:02;4.68;;;1.70;;
44766;SDS011;30487;48.716;9.272;2023-08-31T15:04:30;5.50;;;1.40;;
44766;SDS011;30487;48.716;9.272;2023-08-31T15:06:57;3.83;;;1.80;;
44766;SDS011;30487;48.716;9.272;2023-08-31T15:09:23;4.63;;;1.67;;
44766;SDS011;30487;48.716;9.272;2023-08-31T15:11:48;4.70;;;1.70;;